KTVF/TVF METAR and TAF weather

Enter ICAO airport designator
Station Type Date Time Source
KTVF METAR 2021/05/15 23:56 UTC NOAA

KTVF 152356Z AUTO 00000KT 10SM SCT080 22/03 A2999 RMK AO2 SLP160 T02220033 10233 20194 56008


Station Type Date Time Source
KTVF Decoded METAR 2021/05/15 23:56 UTC NOAA

Thief River Falls, Thief River Falls Regional Airport, MN, United States (KTVF) 48-04N 096-11W
May 15, 2021 - 07:56 PM EDT / 2021.05.15 2356 UTC
Wind: Calm:0
Visibility: 10 mile(s):0
Sky conditions: partly cloudy
Temperature: 72.0 F (22.2 C)
Dew Point: 37.9 F (3.3 C)
Relative Humidity: 28%
Pressure (altimeter): 29.99 in. Hg (1015 hPa)
Pressure tendency: 0.02 inches (0.8 hPa) lower than three hours ago
ob: KTVF 152356Z AUTO 00000KT 10SM SCT080 22/03 A2999 RMK AO2 SLP160 T02220033 10233 20194 56008
cycle: 0

Station Type Date Time Source
KTVF TAF 2021/05/15 18:42 UTC NOAA

TAF KTVF 151740Z 1518/1618 VRB03KT P6SM BKN050
FM160000 VRB05KT P6SM BKN080
FM160200 VRB06KT P6SM SCT080
FM161500 21014G22KT P6SM SCT090

Example: see airport list